createdAt,value
2022-11-03T00:04:17.504Z,100471.06
2022-11-03T00:09:16.128Z,100469.34
2022-11-03T00:14:14.718Z,100467.13
2022-11-03T00:19:13.124Z,100457.53
2022-11-03T00:24:10.165Z,100446.69
2022-11-03T00:29:09.448Z,100440.19
2022-11-03T00:34:07.199Z,100435.41
2022-11-03T00:39:04.624Z,100421.75
2022-11-03T00:44:01.069Z,100418.28
2022-11-03T00:48:57.494Z,100404.84
2022-11-03T00:53:59.651Z,100402.88
2022-11-03T00:58:57.584Z,100401.19
2022-11-03T01:04:15.250Z,100412.88
2022-11-03T01:09:11.627Z,100401.63
2022-11-03T01:14:10.217Z,100410.63
2022-11-03T01:19:07.375Z,100405.47
2022-11-03T01:24:05.143Z,100408.81
2022-11-03T01:29:01.544Z,100393.34
2022-11-03T01:33:58.672Z,100390.22
2022-11-03T01:38:56.365Z,100391.41
2022-11-03T01:44:30.112Z,100379.53
2022-11-03T01:49:58.821Z,100372.53
2022-11-03T01:55:02.237Z,100370.03
2022-11-03T02:00:01.497Z,100368.84
2022-11-03T02:05:02.359Z,100368.34
2022-11-03T02:09:58.947Z,100356.47
2022-11-03T02:15:06.311Z,100345.00
2022-11-03T02:20:14.012Z,100341.72
2022-11-03T02:26:07.261Z,100321.03
2022-11-03T02:31:28.425Z,100313.25
2022-11-03T02:36:35.857Z,100301.06
2022-11-03T02:41:36.079Z,100289.19
2022-11-03T02:46:34.649Z,100272.78
2022-11-03T02:51:30.923Z,100268.69
2022-11-03T02:56:31.075Z,100263.88
2022-11-03T03:01:48.747Z,100262.50
2022-11-03T03:06:53.540Z,100260.38
2022-11-03T03:11:53.802Z,100258.56
2022-11-03T03:16:53.403Z,100255.22
2022-11-03T03:21:53.021Z,100237.91
2022-11-03T03:26:50.646Z,100239.38
2022-11-03T03:31:54.203Z,100238.16
2022-11-03T03:36:51.182Z,100228.59
2022-11-03T03:41:48.551Z,100219.59
2022-11-03T03:46:51.790Z,100218.88
2022-11-03T03:51:49.774Z,100212.34
2022-11-03T03:57:03.015Z,100197.50
2022-11-03T04:01:59.611Z,100203.19
2022-11-03T04:07:14.479Z,100200.25
2022-11-03T04:12:29.243Z,100198.34
2022-11-03T04:17:44.273Z,100192.78
2022-11-03T04:22:40.659Z,100184.81
2022-11-03T04:27:37.960Z,100179.25
2022-11-03T04:32:34.649Z,100184.31
2022-11-03T04:37:31.013Z,100174.19
2022-11-03T04:42:31.490Z,100168.66
2022-11-03T04:47:28.782Z,100166.97
2022-11-03T04:52:25.139Z,100155.03
2022-11-03T04:57:21.517Z,100154.63
2022-11-03T05:02:20.876Z,100155.13
2022-11-03T05:07:32.855Z,100143.41
2022-11-03T05:12:30.910Z,100132.19
2022-11-03T05:17:29.100Z,100131.72
2022-11-03T05:22:29.184Z,100116.25
2022-11-03T05:27:25.645Z,100117.69
2022-11-03T05:32:25.924Z,100109.03
2022-11-03T05:37:31.844Z,100097.91
2022-11-03T05:42:34.115Z,100091.66
2022-11-03T05:47:37.663Z,100091.53
2022-11-03T05:52:34.093Z,100084.66
2022-11-03T05:57:33.339Z,100085.41
2022-11-03T06:02:37.574Z,100084.66
2022-11-03T06:07:34.401Z,100076.84
2022-11-03T06:12:30.922Z,100075.97
2022-11-03T06:17:28.329Z,100075.75
2022-11-03T06:22:31.005Z,100073.78
2022-11-03T06:27:34.041Z,100073.56
2022-11-03T06:32:30.545Z,100057.41
2022-11-03T06:37:34.208Z,100063.66
2022-11-03T06:42:33.252Z,100057.88
2022-11-03T06:47:29.641Z,100048.44
2022-11-03T06:52:30.957Z,100043.16
2022-11-03T06:57:35.560Z,100042.06
2022-11-03T07:02:49.211Z,100032.91
2022-11-03T07:07:47.142Z,100029.63
2022-11-03T07:12:43.715Z,100017.31
2022-11-03T07:17:40.120Z,100022.72
2022-11-03T07:22:36.581Z,100027.75
2022-11-03T07:27:39.052Z,100019.50
2022-11-03T07:32:35.605Z,100014.25
2022-11-03T07:37:32.182Z,100014.38
2022-11-03T07:42:28.707Z,100010.03
2022-11-03T07:47:26.784Z,100005.41
2022-11-03T07:52:25.688Z,100003.50
2022-11-03T07:57:30.409Z,99991.44
2022-11-03T08:02:49.584Z,99985.06
2022-11-03T08:07:46.429Z,99979.66
2022-11-03T08:12:42.927Z,99967.41
2022-11-03T08:17:39.354Z,99956.78
2022-11-03T08:22:35.747Z,99940.84
2022-11-03T08:27:32.199Z,99932.47
2022-11-03T08:32:28.561Z,99921.53
2022-11-03T08:37:24.929Z,99909.34
2022-11-03T08:42:21.300Z,99903.28
2022-11-03T08:47:17.652Z,99894.16
2022-11-03T08:52:14.149Z,99895.44
2022-11-03T08:57:10.491Z,99892.50
2022-11-03T09:02:07.067Z,99891.78
2022-11-03T09:07:03.481Z,99893.19
2022-11-03T09:11:59.849Z,99879.25
2022-11-03T09:16:56.261Z,99871.97
2022-11-03T09:21:52.936Z,99874.00
2022-11-03T09:26:49.367Z,99871.53
2022-11-03T09:31:45.775Z,99871.06
2022-11-03T09:36:42.149Z,99863.34
2022-11-03T09:41:57.922Z,99863.72
2022-11-03T09:46:58.238Z,99858.66
2022-11-03T09:51:55.778Z,99846.06
2022-11-03T09:56:52.172Z,99832.44
2022-11-03T10:01:53.287Z,99823.66
2022-11-03T10:06:49.896Z,99813.56
2022-11-03T10:11:47.092Z,99807.16
2022-11-03T10:16:53.331Z,99819.06
2022-11-03T10:21:51.281Z,99803.56
2022-11-03T10:26:54.579Z,99790.66
2022-11-03T10:31:53.808Z,99776.16
2022-11-03T10:36:50.817Z,99773.66
2022-11-03T10:41:57.498Z,99763.38
2022-11-03T10:47:01.795Z,99746.38
2022-11-03T10:52:21.155Z,99735.88
2022-11-03T10:57:18.363Z,99732.97
2022-11-03T11:02:24.692Z,99718.47
2022-11-03T11:07:26.219Z,99708.66
2022-11-03T11:12:25.021Z,99707.72
2022-11-03T11:17:41.859Z,99697.53
2022-11-03T11:22:38.266Z,99680.00
2022-11-03T11:27:43.737Z,99659.19
2022-11-03T11:32:40.034Z,99656.34
2022-11-03T11:37:37.835Z,99652.44
2022-11-03T11:42:36.441Z,99638.22
2022-11-03T11:47:48.037Z,99614.78
2022-11-03T11:52:51.783Z,99610.22
2022-11-03T11:57:48.480Z,99600.56
2022-11-03T12:02:47.093Z,99561.81
2022-11-03T12:07:43.823Z,99572.19
2022-11-03T12:12:40.299Z,99557.47
2022-11-03T12:17:36.644Z,99553.16
2022-11-03T12:22:41.591Z,99551.47
2022-11-03T12:27:37.937Z,99543.41
2022-11-03T12:32:35.475Z,99524.69
2022-11-03T12:37:32.270Z,99516.28
2022-11-03T12:42:28.660Z,99518.66
2022-11-03T12:47:25.229Z,99515.25
2022-11-03T12:52:21.723Z,99504.34
2022-11-03T12:57:18.373Z,99500.81
2022-11-03T13:02:14.910Z,99486.84
2022-11-03T13:07:11.375Z,99459.75
2022-11-03T13:12:30.407Z,99489.72
2022-11-03T13:17:35.763Z,99491.38
2022-11-03T13:22:42.253Z,99451.22
2022-11-03T13:27:38.646Z,99436.63
2022-11-03T13:32:35.213Z,99429.78
2022-11-03T13:37:31.618Z,99415.06
2022-11-03T13:42:28.009Z,99396.03
2022-11-03T13:47:34.376Z,99377.16
2022-11-03T13:52:40.804Z,99369.97
2022-11-03T14:08:10.637Z,99341.13
2022-11-03T14:13:07.537Z,99332.44
2022-11-03T14:18:04.362Z,99321.56
2022-11-03T14:23:00.737Z,99296.34
2022-11-03T14:27:57.126Z,99288.16
2022-11-03T14:32:59.235Z,99281.94
2022-11-03T14:37:56.092Z,99266.25
2022-11-03T14:42:52.548Z,99256.91
2022-11-03T14:47:48.915Z,99229.19
2022-11-03T14:52:45.291Z,99224.31
2022-11-03T14:57:41.686Z,99225.28
2022-11-03T15:02:38.553Z,99225.78
2022-11-03T15:07:35.001Z,99197.25
2022-11-03T15:12:31.429Z,99194.41
2022-11-03T15:17:27.828Z,99186.41
2022-11-03T15:27:40.666Z,99170.75
2022-11-03T15:32:37.133Z,99169.88
2022-11-03T15:37:33.501Z,99165.38
2022-11-03T15:42:29.849Z,99159.19
2022-11-03T15:47:26.311Z,99135.00
2022-11-03T15:52:22.665Z,99114.66
2022-11-03T15:57:19.077Z,99112.16
2022-11-03T16:02:39.729Z,99114.66
2022-11-03T16:07:32.171Z,99112.28
2022-11-03T16:12:28.689Z,99098.16
2022-11-03T16:17:25.081Z,99092.97
2022-11-03T16:22:21.485Z,99085.94
2022-11-03T16:27:17.899Z,99075.25
2022-11-03T16:32:14.275Z,99073.28
2022-11-03T16:37:10.639Z,99062.59
2022-11-03T16:42:07.109Z,99050.91
2022-11-03T16:47:03.534Z,99039.56
2022-11-03T16:51:59.903Z,99046.75
2022-11-03T16:56:56.256Z,99065.28
2022-11-03T17:01:53.436Z,99051.94
2022-11-03T17:06:49.929Z,99045.91
2022-11-03T17:11:46.344Z,99037.88
2022-11-03T17:16:45.307Z,99024.84
2022-11-03T17:21:41.937Z,99018.16
2022-11-03T17:26:45.448Z,99013.56
2022-11-03T17:31:41.839Z,99011.50
2022-11-03T17:36:38.485Z,99015.84
2022-11-03T17:41:36.022Z,99014.16
2022-11-03T17:46:32.483Z,99012.16
2022-11-03T17:51:28.965Z,99005.81
2022-11-03T17:56:30.761Z,98997.28
2022-11-03T18:01:28.064Z,98986.41
2022-11-03T18:06:25.590Z,98977.03
2022-11-03T18:11:46.996Z,98966.69
2022-11-03T18:16:43.380Z,98961.31
2022-11-03T18:21:40.125Z,98975.66
2022-11-03T18:26:36.500Z,98969.03
2022-11-03T18:31:35.009Z,98954.00
2022-11-03T18:36:33.537Z,98935.44
2022-11-03T18:41:36.482Z,98912.22
2022-11-03T18:46:32.869Z,98914.72
2022-11-03T18:51:29.457Z,98893.88
2022-11-03T18:56:27.210Z,98883.06
2022-11-03T19:01:26.459Z,98870.22
2022-11-03T19:06:24.336Z,98865.53
2022-11-03T19:11:20.716Z,98851.03
2022-11-03T19:16:20.621Z,98833.22
2022-11-03T19:21:25.378Z,98829.16
2022-11-03T19:26:23.177Z,98836.19
2022-11-03T19:31:35.552Z,98829.31
2022-11-03T19:36:31.902Z,98819.94
2022-11-03T19:41:46.721Z,98826.25
2022-11-03T19:46:43.268Z,98812.28
2022-11-03T19:51:39.820Z,98815.25
2022-11-03T19:56:36.110Z,98809.72
2022-11-03T20:01:32.554Z,98810.88
2022-11-03T20:06:30.339Z,98794.06
2022-11-03T20:11:27.529Z,98799.47
2022-11-03T20:16:24.475Z,98794.59
2022-11-03T20:21:22.506Z,98785.34
2022-11-03T20:26:22.046Z,98790.31
2022-11-03T20:31:18.708Z,98789.66
2022-11-03T20:36:18.067Z,98790.34
2022-11-03T20:41:14.982Z,98802.81
2022-11-03T20:46:22.883Z,98818.63
2022-11-03T20:51:22.473Z,98801.69
2022-11-03T20:56:21.531Z,98798.66
2022-11-03T21:01:33.430Z,98792.66
2022-11-03T21:06:31.963Z,98780.41
2022-11-03T21:11:29.266Z,98785.84
2022-11-03T21:16:46.368Z,98787.00
2022-11-03T21:21:42.761Z,98770.38
2022-11-03T21:26:40.116Z,98756.72
2022-11-03T21:31:36.484Z,98755.38
2022-11-03T21:36:32.838Z,98745.22
2022-11-03T21:41:47.955Z,98735.72
2022-11-03T21:46:44.718Z,98739.72
2022-11-03T21:51:41.022Z,98725.13
2022-11-03T21:56:37.342Z,98718.16
2022-11-03T22:01:33.703Z,98724.53
2022-11-03T22:06:30.180Z,98719.38
2022-11-03T22:11:26.602Z,98715.38
2022-11-03T22:16:42.596Z,98714.22
2022-11-03T22:21:57.394Z,98708.41
2022-11-03T22:26:56.655Z,98709.22
2022-11-03T22:31:52.991Z,98711.78
2022-11-03T22:36:49.295Z,98729.84
2022-11-03T22:42:06.543Z,98753.91
2022-11-03T22:47:03.491Z,98738.03
2022-11-03T22:51:59.847Z,98742.56
2022-11-03T22:56:56.137Z,98736.13
2022-11-03T23:01:52.588Z,98749.09
2022-11-03T23:06:49.135Z,98745.81
2022-11-03T23:11:45.439Z,98754.78
2022-11-03T23:16:43.931Z,98758.78
2022-11-03T23:21:40.559Z,98751.13
2022-11-03T23:26:36.856Z,98751.09
2022-11-03T23:31:34.688Z,98735.44
2022-11-03T23:36:31.501Z,98733.97
2022-11-03T23:41:28.823Z,98735.81
2022-11-03T23:46:46.202Z,98736.50
2022-11-03T23:51:42.881Z,98748.13
2022-11-03T23:57:00.423Z,98749.78
